createdAt,value
2022-10-01T00:00:56.654Z,30.07
2022-10-01T00:03:24.677Z,29.93
2022-10-01T00:06:07.315Z,30.20
2022-10-01T00:08:34.052Z,30.17
2022-10-01T00:11:01.688Z,30.17
2022-10-01T00:13:30.365Z,28.90
2022-10-01T00:15:57.052Z,27.03
2022-10-01T00:18:23.480Z,28.27
2022-10-01T00:20:49.908Z,30.87
2022-10-01T00:23:16.600Z,36.30
2022-10-01T00:25:43.694Z,38.67
2022-10-01T00:28:12.066Z,38.90
2022-10-01T00:30:40.493Z,35.10
2022-10-01T00:33:07.149Z,33.40
2022-10-01T00:35:33.567Z,31.40
2022-10-01T00:38:00.182Z,31.30
2022-10-01T00:40:26.650Z,31.47
2022-10-01T00:42:53.055Z,29.97
2022-10-01T00:45:19.520Z,28.23
2022-10-01T00:47:52.621Z,30.70
2022-10-01T00:50:34.957Z,28.10
2022-10-01T00:53:06.425Z,27.23
2022-10-01T00:55:38.292Z,28.63
2022-10-01T00:58:05.180Z,28.40
2022-10-01T01:00:32.159Z,28.70
2022-10-01T01:02:58.901Z,29.33
2022-10-01T01:05:25.417Z,27.53
2022-10-01T01:07:53.266Z,27.27
2022-10-01T01:10:30.989Z,28.50
2022-10-01T01:13:24.073Z,28.60
2022-10-01T01:16:24.687Z,28.33
2022-10-01T01:19:04.157Z,27.07
2022-10-01T01:21:44.166Z,29.03
2022-10-01T01:24:29.021Z,28.50
2022-10-01T01:27:06.394Z,30.80
2022-10-01T01:29:46.553Z,30.00
2022-10-01T01:32:18.454Z,31.40
2022-10-01T01:34:46.987Z,33.27
2022-10-01T01:37:15.307Z,32.10
2022-10-01T01:39:45.240Z,32.57
2022-10-01T01:42:16.151Z,35.27
2022-10-01T01:44:45.762Z,31.33
2022-10-01T01:47:13.037Z,31.63
2022-10-01T01:49:39.956Z,34.50
2022-10-01T01:52:15.196Z,34.47
2022-10-01T01:54:49.738Z,33.20
2022-10-01T01:57:18.144Z,31.73
2022-10-01T01:59:45.668Z,37.37
2022-10-01T02:02:15.074Z,36.87
2022-10-01T02:04:48.859Z,36.57
2022-10-01T02:07:28.647Z,37.73
2022-10-01T02:09:59.973Z,38.53
2022-10-01T02:12:54.172Z,40.07
2022-10-01T02:15:48.746Z,37.83
2022-10-01T02:18:44.365Z,39.93
2022-10-01T02:21:21.810Z,41.33
2022-10-01T02:24:32.374Z,39.23
2022-10-01T02:27:00.511Z,38.40
2022-10-01T02:29:27.997Z,39.57
2022-10-01T02:31:55.716Z,40.93
2022-10-01T02:34:24.913Z,40.63
2022-10-01T02:36:51.909Z,38.00
2022-10-01T02:39:19.178Z,36.17
2022-10-01T02:41:48.204Z,39.10
2022-10-01T02:44:21.250Z,39.70
2022-10-01T02:47:07.866Z,35.60
2022-10-01T02:49:35.865Z,37.87
2022-10-01T02:52:31.437Z,37.47
2022-10-01T02:55:07.310Z,38.20
2022-10-01T02:57:33.990Z,38.07
2022-10-01T03:00:04.116Z,39.60
2022-10-01T03:02:31.736Z,37.00
2022-10-01T03:04:58.893Z,36.90
2022-10-01T03:07:26.312Z,38.07
2022-10-01T03:09:52.837Z,36.43
2022-10-01T03:12:19.315Z,38.33
2022-10-01T03:14:46.846Z,37.97
2022-10-01T03:17:13.873Z,33.77
2022-10-01T03:19:40.347Z,37.23
2022-10-01T03:22:07.532Z,37.50
2022-10-01T03:24:34.340Z,35.13
2022-10-01T03:27:01.339Z,35.73
2022-10-01T03:29:27.822Z,36.40
2022-10-01T03:31:54.840Z,33.63
2022-10-01T03:34:21.866Z,36.13
2022-10-01T03:36:48.818Z,36.87
2022-10-01T03:39:15.387Z,37.50
2022-10-01T03:41:41.893Z,36.30
2022-10-01T03:44:08.571Z,37.83
2022-10-01T03:46:34.978Z,36.13
2022-10-01T03:49:01.655Z,38.07
2022-10-01T03:51:28.675Z,38.43
2022-10-01T03:53:56.505Z,34.43
2022-10-01T03:56:23.477Z,36.73
2022-10-01T03:58:50.343Z,36.87
2022-10-01T04:01:17.276Z,40.50
2022-10-01T04:03:43.913Z,39.83
2022-10-01T04:06:11.354Z,37.33
2022-10-01T04:08:38.703Z,34.97
2022-10-01T04:11:06.357Z,35.03
2022-10-01T04:13:33.236Z,37.70
2022-10-01T04:15:59.759Z,38.77
2022-10-01T04:18:26.461Z,36.43
2022-10-01T04:20:52.855Z,34.20
2022-10-01T04:23:19.328Z,35.50
2022-10-01T04:25:45.888Z,39.80
2022-10-01T04:28:13.209Z,38.00
2022-10-01T04:30:41.443Z,37.93
2022-10-01T04:33:09.805Z,35.87
2022-10-01T04:35:37.024Z,36.47
2022-10-01T04:38:06.441Z,35.77
2022-10-01T04:40:35.360Z,35.77
2022-10-01T04:43:03.073Z,34.77
2022-10-01T04:45:29.616Z,35.17
2022-10-01T04:47:56.309Z,36.70
2022-10-01T04:50:24.848Z,35.17
2022-10-01T04:52:51.809Z,36.47
2022-10-01T04:55:20.050Z,33.30
2022-10-01T04:57:46.696Z,34.20
2022-10-01T05:00:15.935Z,39.93
2022-10-01T05:02:46.487Z,36.90
2022-10-01T05:05:13.212Z,36.07
2022-10-01T05:07:40.392Z,35.03
2022-10-01T05:10:12.674Z,36.97
2022-10-01T05:12:39.153Z,36.83
2022-10-01T05:15:06.146Z,40.63
2022-10-01T05:17:33.169Z,36.10
2022-10-01T05:19:59.905Z,40.60
2022-10-01T05:22:26.490Z,44.57
2022-10-01T05:24:53.514Z,42.30
2022-10-01T05:27:20.023Z,41.93
2022-10-01T05:29:46.889Z,43.77
2022-10-01T05:32:13.738Z,45.60
2022-10-01T05:34:40.506Z,42.60
2022-10-01T05:37:07.143Z,44.73
2022-10-01T05:39:33.923Z,42.87
2022-10-01T05:42:06.369Z,42.40
2022-10-01T05:44:38.189Z,42.57
2022-10-01T05:47:06.466Z,43.40
2022-10-01T05:49:33.424Z,42.63
2022-10-01T05:52:01.218Z,46.60
2022-10-01T05:54:29.581Z,43.40
2022-10-01T05:56:57.156Z,42.77
2022-10-01T05:59:28.446Z,45.13
2022-10-01T06:01:57.726Z,45.93
2022-10-01T06:04:24.320Z,45.50
2022-10-01T06:06:50.851Z,43.57
2022-10-01T06:09:17.427Z,46.60
2022-10-01T06:11:43.923Z,45.47
2022-10-01T06:14:10.638Z,47.17
2022-10-01T06:16:37.295Z,45.47
2022-10-01T06:19:04.411Z,45.40
2022-10-01T06:21:31.851Z,42.50
2022-10-01T06:23:58.804Z,41.83
2022-10-01T06:26:25.355Z,42.83
2022-10-01T06:28:52.825Z,41.30
2022-10-01T06:31:19.836Z,45.63
2022-10-01T06:33:46.508Z,41.70
2022-10-01T06:36:13.091Z,41.63
2022-10-01T06:38:39.684Z,39.30
2022-10-01T06:41:06.235Z,38.13
2022-10-01T06:43:33.715Z,37.57
2022-10-01T06:46:05.140Z,34.87
2022-10-01T06:48:32.445Z,35.10
2022-10-01T06:50:59.544Z,35.93
2022-10-01T06:53:27.598Z,33.53
2022-10-01T06:55:54.481Z,31.87
2022-10-01T06:58:23.077Z,33.90
2022-10-01T07:00:50.310Z,32.47
2022-10-01T07:03:21.457Z,30.40
2022-10-01T07:05:50.375Z,34.97
2022-10-01T07:08:17.899Z,25.93
2022-10-01T07:10:45.753Z,26.53
2022-10-01T07:13:16.151Z,23.97
2022-10-01T07:15:42.939Z,23.30
2022-10-01T07:18:09.859Z,23.03
2022-10-01T07:20:40.124Z,22.30
2022-10-01T07:23:14.541Z,21.83
2022-10-01T07:25:42.052Z,20.27
2022-10-01T07:28:16.303Z,20.03
2022-10-01T07:31:07.562Z,18.80
2022-10-01T07:33:34.207Z,18.57
2022-10-01T07:36:03.253Z,16.77
2022-10-01T07:38:30.085Z,16.23
2022-10-01T07:40:59.125Z,16.43
2022-10-01T07:43:25.852Z,15.47
2022-10-01T07:45:55.286Z,16.53
2022-10-01T07:48:22.075Z,15.90
2022-10-01T07:50:49.658Z,16.90
2022-10-01T07:53:17.146Z,15.83
2022-10-01T07:55:44.813Z,16.80
2022-10-01T07:58:12.044Z,16.38
2022-10-01T08:00:39.271Z,17.55
2022-10-01T08:03:06.053Z,17.57
2022-10-01T08:05:34.753Z,16.73
2022-10-01T08:08:06.173Z,17.27
2022-10-01T08:10:36.937Z,17.40
2022-10-01T08:13:14.549Z,17.50
2022-10-01T08:15:46.254Z,17.67
2022-10-01T08:18:13.215Z,17.60
2022-10-01T08:20:40.106Z,16.23
2022-10-01T08:23:11.615Z,16.63
2022-10-01T08:25:40.477Z,15.67
2022-10-01T08:28:09.010Z,14.87
2022-10-01T08:30:37.862Z,15.77
2022-10-01T08:33:05.657Z,15.33
2022-10-01T08:35:32.269Z,16.63
2022-10-01T08:38:04.303Z,16.63
2022-10-01T08:40:37.166Z,15.70
2022-10-01T08:43:07.540Z,17.87
2022-10-01T08:45:46.844Z,17.37
2022-10-01T08:48:56.855Z,17.67
2022-10-01T08:51:33.011Z,16.87
2022-10-01T08:54:32.394Z,17.40
2022-10-01T08:57:02.381Z,17.80
2022-10-01T08:59:35.520Z,18.07
2022-10-01T09:02:04.641Z,17.30
2022-10-01T09:04:31.344Z,9.93
2022-10-01T09:07:23.772Z,14.77
2022-10-01T09:10:00.721Z,15.73
2022-10-01T09:12:54.064Z,15.07
2022-10-01T09:15:43.364Z,14.70
2022-10-01T09:18:25.862Z,13.10
2022-10-01T09:20:55.170Z,13.73
2022-10-01T09:23:32.408Z,8.73
2022-10-01T09:25:59.688Z,11.27
2022-10-01T09:28:33.990Z,12.20
2022-10-01T09:31:12.442Z,13.00
2022-10-01T09:33:42.626Z,14.60
2022-10-01T09:36:21.963Z,14.77
2022-10-01T09:38:58.050Z,13.80
2022-10-01T09:41:24.836Z,14.93
2022-10-01T09:43:51.453Z,15.03
2022-10-01T09:46:18.223Z,13.63
2022-10-01T09:49:03.255Z,14.87
2022-10-01T09:51:50.482Z,13.93
2022-10-01T09:54:22.491Z,13.00
2022-10-01T09:56:55.462Z,14.27
2022-10-01T09:59:24.843Z,15.27
2022-10-01T10:01:59.128Z,14.90
2022-10-01T10:04:26.198Z,15.37
2022-10-01T10:07:00.301Z,15.97
2022-10-01T10:09:29.858Z,15.70
2022-10-01T10:12:00.820Z,15.73
2022-10-01T10:14:31.400Z,14.47
2022-10-01T10:16:59.168Z,13.77
2022-10-01T10:19:28.562Z,12.43
2022-10-01T10:22:00.774Z,13.00
2022-10-01T10:24:35.059Z,12.70
2022-10-01T10:27:05.258Z,12.37
2022-10-01T10:29:33.868Z,12.50
2022-10-01T10:32:10.581Z,13.43
2022-10-01T10:34:41.257Z,13.83
2022-10-01T10:37:18.932Z,13.87
2022-10-01T10:39:48.429Z,14.30
2022-10-01T10:42:15.824Z,14.03
2022-10-01T10:44:44.214Z,14.30
2022-10-01T10:47:14.724Z,13.13
2022-10-01T10:49:44.020Z,14.40
2022-10-01T10:52:25.327Z,15.07
2022-10-01T10:54:53.818Z,14.33
2022-10-01T10:57:23.179Z,14.30
2022-10-01T10:59:56.473Z,14.50
2022-10-01T11:02:26.848Z,14.07
2022-10-01T11:04:53.946Z,12.47
2022-10-01T11:07:22.023Z,12.73
2022-10-01T11:10:13.430Z,12.60
2022-10-01T11:13:06.771Z,13.77
2022-10-01T11:15:39.236Z,11.47
2022-10-01T11:18:12.372Z,11.60
2022-10-01T11:20:44.026Z,10.57
2022-10-01T11:23:27.664Z,10.33
2022-10-01T11:26:16.640Z,10.27
2022-10-01T11:28:54.900Z,10.77
2022-10-01T11:31:48.779Z,11.77
2022-10-01T11:34:37.811Z,11.87
2022-10-01T11:37:41.752Z,11.13
2022-10-01T11:40:49.393Z,12.17
2022-10-01T11:43:29.749Z,10.60
2022-10-01T11:46:00.454Z,11.77
2022-10-01T11:48:33.424Z,10.13
2022-10-01T11:51:07.875Z,10.73
2022-10-01T11:53:39.882Z,11.47
2022-10-01T11:56:36.484Z,12.50
2022-10-01T11:59:09.956Z,10.37
2022-10-01T12:01:48.124Z,10.60
2022-10-01T12:04:22.595Z,11.77
2022-10-01T12:06:53.272Z,10.47
2022-10-01T12:09:22.503Z,10.03
2022-10-01T12:12:01.460Z,10.30
2022-10-01T12:14:33.086Z,9.33
2022-10-01T12:17:09.878Z,9.63
2022-10-01T12:19:40.029Z,9.07
2022-10-01T12:22:21.273Z,9.37
2022-10-01T12:24:50.346Z,8.50
2022-10-01T12:27:29.288Z,8.57
2022-10-01T12:30:21.689Z,8.50
2022-10-01T12:33:05.237Z,9.80
2022-10-01T12:35:41.432Z,9.90
2022-10-01T12:38:49.888Z,11.33
2022-10-01T12:41:44.489Z,10.20
2022-10-01T12:44:24.271Z,10.67
2022-10-01T12:47:12.932Z,11.03
2022-10-01T12:50:03.734Z,9.30
2022-10-01T12:52:48.889Z,8.97
2022-10-01T12:55:44.598Z,8.60
2022-10-01T12:58:38.507Z,7.43
2022-10-01T13:01:18.874Z,6.67
2022-10-01T13:04:11.049Z,6.97
2022-10-01T13:06:55.937Z,6.77
2022-10-01T13:09:35.271Z,5.50
2022-10-01T13:12:13.910Z,6.00
2022-10-01T13:14:44.350Z,5.70
2022-10-01T13:17:30.379Z,5.70
2022-10-01T13:20:13.341Z,5.23
2022-10-01T13:22:58.204Z,5.90
2022-10-01T13:25:33.861Z,6.07
2022-10-01T13:28:11.859Z,5.90
2022-10-01T13:31:00.136Z,5.70
2022-10-01T13:33:29.695Z,5.70
2022-10-01T13:36:01.388Z,5.40
2022-10-01T13:38:38.711Z,4.87
2022-10-01T13:41:15.832Z,5.60
2022-10-01T13:43:47.983Z,5.90
2022-10-01T13:46:14.525Z,5.43
2022-10-01T13:48:48.353Z,5.80
2022-10-01T13:51:15.696Z,5.70
2022-10-01T13:53:42.043Z,6.60
2022-10-01T13:56:12.241Z,7.10
2022-10-01T13:58:43.450Z,6.70
2022-10-01T14:01:18.887Z,6.17
2022-10-01T14:04:17.059Z,7.27
2022-10-01T14:07:17.395Z,6.07
2022-10-01T14:09:50.072Z,6.70
2022-10-01T14:12:50.892Z,6.83
2022-10-01T14:15:38.568Z,5.93
2022-10-01T14:18:16.121Z,6.80
2022-10-01T14:20:58.918Z,7.17
2022-10-01T14:23:36.121Z,6.57
2022-10-01T14:26:27.433Z,6.50
2022-10-01T14:29:05.121Z,7.20
2022-10-01T14:31:56.838Z,6.97
2022-10-01T14:34:41.456Z,6.83
2022-10-01T14:37:16.829Z,6.70
2022-10-01T14:39:43.825Z,6.80
2022-10-01T14:42:16.983Z,7.50
2022-10-01T14:44:46.263Z,6.67
2022-10-01T14:47:19.986Z,7.47
2022-10-01T14:49:47.458Z,7.27
2022-10-01T14:52:19.924Z,7.07
2022-10-01T14:54:59.263Z,8.13
2022-10-01T14:57:40.006Z,8.27
2022-10-01T15:00:16.029Z,8.20
2022-10-01T15:02:49.257Z,9.13
2022-10-01T15:05:35.395Z,8.40
2022-10-01T15:08:20.580Z,9.43
2022-10-01T15:10:53.092Z,10.77
2022-10-01T15:13:27.106Z,10.80
2022-10-01T15:15:54.862Z,10.83
2022-10-01T15:18:22.342Z,11.13
2022-10-01T15:20:58.133Z,14.83
2022-10-01T15:23:25.477Z,13.80
2022-10-01T15:25:53.751Z,12.83
2022-10-01T15:28:28.045Z,12.30
2022-10-01T15:30:54.842Z,12.30
2022-10-01T15:33:27.796Z,13.80
2022-10-01T15:35:57.030Z,12.93
2022-10-01T15:38:23.945Z,12.57
2022-10-01T15:41:04.994Z,13.33
2022-10-01T15:43:42.193Z,14.00
2022-10-01T15:46:11.468Z,14.90
2022-10-01T15:48:38.264Z,13.90
2022-10-01T15:51:16.141Z,14.13
2022-10-01T15:53:43.013Z,13.57
2022-10-01T15:56:12.198Z,12.90
2022-10-01T15:58:45.185Z,12.63
2022-10-01T16:01:22.192Z,13.63
2022-10-01T16:04:08.417Z,12.83
2022-10-01T16:06:41.041Z,13.73
2022-10-01T16:09:19.052Z,12.43
2022-10-01T16:11:57.434Z,12.90
2022-10-01T16:14:30.776Z,13.47
2022-10-01T16:17:17.671Z,13.60
2022-10-01T16:19:45.254Z,14.20
2022-10-01T16:22:18.764Z,14.27
2022-10-01T16:24:52.320Z,14.57
2022-10-01T16:27:21.743Z,14.87
2022-10-01T16:30:05.096Z,14.37
2022-10-01T16:32:32.239Z,13.53
2022-10-01T16:35:18.300Z,15.00
2022-10-01T16:37:45.666Z,15.10
2022-10-01T16:40:16.244Z,14.93
2022-10-01T16:42:43.848Z,14.83
2022-10-01T16:45:24.726Z,14.57
2022-10-01T16:47:52.722Z,14.50
2022-10-01T16:50:21.556Z,15.03
2022-10-01T16:52:48.278Z,14.50
2022-10-01T16:55:23.282Z,15.27
2022-10-01T16:57:50.274Z,14.40
2022-10-01T17:00:18.489Z,15.10
2022-10-01T17:02:45.304Z,14.70
2022-10-01T17:05:30.270Z,15.17
2022-10-01T17:08:04.511Z,15.13
2022-10-01T17:10:35.977Z,15.97
2022-10-01T17:13:04.610Z,15.63
2022-10-01T17:15:31.221Z,16.00
2022-10-01T17:17:58.970Z,15.43
2022-10-01T17:20:28.407Z,15.43
2022-10-01T17:22:55.709Z,15.17
2022-10-01T17:25:25.365Z,15.37
2022-10-01T17:27:52.135Z,15.90
2022-10-01T17:30:19.321Z,15.23
2022-10-01T17:32:46.713Z,14.83
2022-10-01T17:35:14.616Z,15.67
2022-10-01T17:37:41.758Z,14.43
2022-10-01T17:40:09.129Z,14.50
2022-10-01T17:42:36.007Z,15.10
2022-10-01T17:45:07.955Z,16.53
2022-10-01T17:47:34.598Z,15.13
2022-10-01T17:50:01.160Z,17.00
2022-10-01T17:52:27.868Z,16.83
2022-10-01T17:54:54.758Z,16.63
2022-10-01T17:57:21.553Z,16.97
2022-10-01T17:59:48.400Z,16.33
2022-10-01T18:02:39.728Z,15.77
2022-10-01T18:05:05.131Z,17.53
2022-10-01T18:07:31.856Z,17.63
2022-10-01T18:09:58.957Z,18.37
2022-10-01T18:12:25.613Z,17.90
2022-10-01T18:14:52.499Z,18.40
2022-10-01T18:17:19.156Z,18.50
2022-10-01T18:19:53.226Z,18.50
2022-10-01T18:22:20.611Z,19.23
2022-10-01T18:24:47.647Z,20.50
2022-10-01T18:27:14.221Z,19.03
2022-10-01T18:29:40.928Z,19.73
2022-10-01T18:32:24.260Z,18.67
2022-10-01T18:35:03.285Z,19.73
2022-10-01T18:37:40.001Z,20.07
2022-10-01T18:40:13.380Z,19.73
2022-10-01T18:43:00.101Z,19.70
2022-10-01T18:45:43.191Z,20.93
2022-10-01T18:48:40.456Z,21.60
2022-10-01T18:51:51.136Z,21.30
2022-10-01T18:54:37.608Z,21.90
2022-10-01T18:57:39.715Z,21.93
2022-10-01T19:00:23.546Z,22.00
2022-10-01T19:03:19.358Z,22.87
2022-10-01T19:06:10.741Z,22.57
2022-10-01T19:09:04.814Z,23.10
2022-10-01T19:11:51.512Z,23.17
2022-10-01T19:14:31.044Z,22.97
2022-10-01T19:17:34.625Z,24.13
2022-10-01T19:20:06.821Z,23.90
2022-10-01T19:22:53.069Z,23.57
2022-10-01T19:25:27.784Z,24.17
2022-10-01T19:28:10.797Z,23.50
2022-10-01T19:31:15.224Z,23.37
2022-10-01T19:33:46.745Z,23.83
2022-10-01T19:36:33.649Z,23.80
2022-10-01T19:39:04.536Z,23.97
2022-10-01T19:41:47.604Z,23.37
2022-10-01T19:44:19.346Z,22.77
2022-10-01T19:46:47.483Z,24.87
2022-10-01T19:49:40.348Z,23.60
2022-10-01T19:52:18.188Z,24.00
2022-10-01T19:54:52.720Z,23.30
2022-10-01T19:57:24.282Z,24.40
2022-10-01T19:59:52.740Z,23.50
2022-10-01T20:02:33.102Z,24.63
2022-10-01T20:05:06.050Z,23.03
2022-10-01T20:07:47.513Z,23.57
2022-10-01T20:10:25.557Z,23.80
2022-10-01T20:13:10.124Z,24.17
2022-10-01T20:15:58.397Z,24.57
2022-10-01T20:18:58.822Z,24.37
2022-10-01T20:21:46.624Z,25.47
2022-10-01T20:24:34.905Z,25.87
2022-10-01T20:27:15.155Z,23.90
2022-10-01T20:30:06.673Z,26.17
2022-10-01T20:32:39.870Z,26.23
2022-10-01T20:35:30.184Z,26.37
2022-10-01T20:38:15.245Z,25.83
2022-10-01T20:40:49.723Z,25.70
2022-10-01T20:43:22.479Z,26.27
2022-10-01T20:45:51.934Z,26.73
2022-10-01T20:48:35.515Z,25.17
2022-10-01T20:51:10.656Z,25.97
2022-10-01T20:53:43.375Z,25.43
2022-10-01T20:56:15.489Z,27.57
2022-10-01T20:58:47.451Z,27.87
2022-10-01T21:01:17.903Z,28.23
2022-10-01T21:03:46.970Z,27.00
2022-10-01T21:06:17.212Z,27.60
2022-10-01T21:08:53.615Z,28.03
2022-10-01T21:11:30.668Z,27.17
2022-10-01T21:14:07.031Z,29.43
2022-10-01T21:16:46.210Z,29.77
2022-10-01T21:19:22.437Z,30.67
2022-10-01T21:22:07.652Z,31.57
2022-10-01T21:24:52.072Z,31.37
2022-10-01T21:27:58.102Z,31.47
2022-10-01T21:30:24.797Z,28.70
2022-10-01T21:33:04.904Z,27.83
2022-10-01T21:35:44.483Z,27.23
2022-10-01T21:38:19.315Z,29.47
2022-10-01T21:41:01.677Z,27.13
2022-10-01T21:43:56.379Z,26.63
2022-10-01T21:46:42.343Z,25.97
2022-10-01T21:49:31.745Z,26.27
2022-10-01T21:52:21.727Z,25.03
2022-10-01T21:54:59.017Z,26.17
2022-10-01T21:57:35.942Z,25.83
2022-10-01T22:00:16.515Z,26.57
2022-10-01T22:03:00.667Z,26.03
2022-10-01T22:05:34.372Z,26.07
2022-10-01T22:08:20.652Z,24.80
2022-10-01T22:10:50.681Z,23.73
2022-10-01T22:13:27.519Z,23.10
2022-10-01T22:15:56.980Z,23.53
2022-10-01T22:18:36.068Z,22.47
2022-10-01T22:21:07.502Z,21.80
2022-10-01T22:23:37.483Z,22.53
2022-10-01T22:26:11.777Z,21.30
2022-10-01T22:28:39.728Z,20.47
2022-10-01T22:31:11.371Z,20.70
2022-10-01T22:33:42.310Z,17.23
2022-10-01T22:36:15.786Z,18.50
2022-10-01T22:38:46.044Z,16.73
2022-10-01T22:41:17.681Z,14.47
2022-10-01T22:43:45.706Z,12.67
2022-10-01T22:46:40.122Z,13.23
2022-10-01T22:49:36.075Z,12.67
2022-10-01T22:52:10.025Z,12.33
2022-10-01T22:54:56.841Z,12.33
2022-10-01T22:58:06.291Z,12.77
2022-10-01T23:00:51.257Z,13.33
2022-10-01T23:03:55.707Z,13.23
2022-10-01T23:06:24.969Z,14.40
2022-10-01T23:09:11.643Z,13.50
2022-10-01T23:12:03.386Z,14.10
2022-10-01T23:14:32.619Z,13.40
2022-10-01T23:17:07.185Z,13.77
2022-10-01T23:20:14.904Z,13.80
2022-10-01T23:22:44.889Z,14.97
2022-10-01T23:25:56.122Z,13.63
2022-10-01T23:28:48.848Z,14.80
2022-10-01T23:31:33.469Z,15.17
2022-10-01T23:34:37.606Z,15.83
2022-10-01T23:37:34.874Z,15.20
2022-10-01T23:40:06.939Z,15.43
2022-10-01T23:43:04.383Z,13.03
2022-10-01T23:45:36.269Z,13.90
2022-10-01T23:48:13.810Z,12.13
2022-10-01T23:50:45.829Z,12.57
2022-10-01T23:53:20.328Z,11.50
2022-10-01T23:56:11.191Z,10.00
2022-10-01T23:58:45.464Z,10.93
